Stapleton, Georgia
Current Conditions -  °F | °C
As of 2:35 AM on Wednesday 26 Nov 2014 (Local Time) from KHQU Reporting Station
NA  
Wind Chill: 45°   Ceiling: NA
Heat Index: 47°   Visibility: 5mi
Dew Point: 47°   Wind: 6mph
Humidity: 100%   Direction: 320°NW
Pressure: 30"   Gusts: NA
Location:  33.22°N, 82.47°W
Report Text: KHQU 260735Z AUTO 32005KT 5SM 09/09 A3000 RMK AO1 T00860086
Loading
Personal Weather Stations






























Interactive Weather Map New forecast layout! Learn more

10-Day Weather Forecast

Advertisements
Track Severe Weather on mobile